createdAt,value
2022-09-27T00:01:44.680Z,94177.69
2022-09-27T00:04:12.792Z,94171.38
2022-09-27T00:06:41.078Z,94175.47
2022-09-27T00:09:09.492Z,94163.63
2022-09-27T00:11:42.798Z,94166.22
2022-09-27T00:14:12.645Z,94164.59
2022-09-27T00:16:41.270Z,94159.22
2022-09-27T00:19:12.467Z,94152.91
2022-09-27T00:21:39.755Z,94178.84
2022-09-27T00:24:06.609Z,94183.75
2022-09-27T00:26:33.360Z,94183.28
2022-09-27T00:29:00.219Z,94200.81
2022-09-27T00:31:30.255Z,94194.56
2022-09-27T00:34:01.149Z,94186.28
2022-09-27T00:36:29.194Z,94191.59
2022-09-27T00:38:59.819Z,94185.50
2022-09-27T00:41:36.194Z,94173.31
2022-09-27T00:44:25.076Z,94169.78
2022-09-27T00:47:11.514Z,94165.53
2022-09-27T00:49:41.322Z,94170.41
2022-09-27T00:52:16.406Z,94162.69
2022-09-27T00:54:46.231Z,94173.31
2022-09-27T00:57:13.205Z,94166.28
2022-09-27T00:59:46.453Z,94161.09
2022-09-27T01:02:13.991Z,94148.22
2022-09-27T01:04:42.454Z,94161.72
2022-09-27T01:07:09.475Z,94155.84
2022-09-27T01:09:36.443Z,94152.03
2022-09-27T01:12:40.685Z,94141.13
2022-09-27T01:15:34.900Z,94147.53
2022-09-27T01:18:20.873Z,94170.72
2022-09-27T01:21:25.519Z,94154.53
2022-09-27T01:24:15.414Z,94140.09
2022-09-27T01:26:45.711Z,94141.44
2022-09-27T01:29:41.841Z,94152.88
2022-09-27T01:32:15.576Z,94157.38
2022-09-27T01:34:46.993Z,94123.91
2022-09-27T01:37:31.316Z,94133.56
2022-09-27T01:40:37.420Z,94145.69
2022-09-27T01:43:32.960Z,94143.31
2022-09-27T01:46:08.329Z,94145.63
2022-09-27T01:49:10.971Z,94143.44
2022-09-27T01:51:48.061Z,94128.41
2022-09-27T01:54:23.957Z,94135.69
2022-09-27T01:57:35.512Z,94149.44
2022-09-27T02:00:09.806Z,94133.56
2022-09-27T02:03:06.035Z,94152.28
2022-09-27T02:05:43.110Z,94135.84
2022-09-27T02:08:41.916Z,94129.78
2022-09-27T02:11:21.005Z,94131.91
2022-09-27T02:14:15.569Z,94122.84
2022-09-27T02:16:55.159Z,94108.19
2022-09-27T02:19:43.280Z,94100.66
2022-09-27T02:22:31.448Z,94111.03
2022-09-27T02:25:16.842Z,94103.41
2022-09-27T02:27:57.936Z,94086.25
2022-09-27T02:30:28.750Z,94072.75
2022-09-27T02:33:06.071Z,94068.75
2022-09-27T02:35:34.608Z,94077.41
2022-09-27T02:38:03.283Z,94067.38
2022-09-27T02:40:33.573Z,94052.41
2022-09-27T02:43:03.692Z,94027.41
2022-09-27T02:45:42.776Z,94044.69
2022-09-27T02:48:16.024Z,94055.59
2022-09-27T02:51:07.274Z,94058.91
2022-09-27T02:54:11.756Z,94065.75
2022-09-27T02:57:22.716Z,94076.03
2022-09-27T03:00:19.761Z,94074.03
2022-09-27T03:03:27.234Z,94075.03
2022-09-27T03:06:08.155Z,94075.81
2022-09-27T03:08:37.903Z,94052.53
2022-09-27T03:11:05.849Z,94036.09
2022-09-27T03:13:45.841Z,94016.66
2022-09-27T03:16:22.381Z,94030.38
2022-09-27T03:19:00.310Z,94004.75
2022-09-27T03:21:45.670Z,94002.91
2022-09-27T03:24:12.416Z,93989.78
2022-09-27T03:26:39.910Z,93993.25
2022-09-27T03:29:06.919Z,93990.59
2022-09-27T03:31:34.195Z,93997.34
2022-09-27T03:34:30.162Z,94000.03
2022-09-27T03:36:57.263Z,93988.50
2022-09-27T03:39:24.489Z,93997.50
2022-09-27T03:41:51.422Z,93990.16
2022-09-27T03:44:18.267Z,93999.91
2022-09-27T03:46:45.247Z,93996.81
2022-09-27T03:49:12.174Z,93990.94
2022-09-27T03:51:39.054Z,93980.75
2022-09-27T03:54:05.796Z,93985.41
2022-09-27T03:56:33.266Z,93993.16
2022-09-27T03:59:01.297Z,94003.72
2022-09-27T04:01:35.192Z,93989.38
2022-09-27T04:04:16.803Z,94008.94
2022-09-27T04:06:43.733Z,94004.94
2022-09-27T04:09:10.494Z,94003.50
2022-09-27T04:11:57.696Z,93996.97
2022-09-27T04:14:24.551Z,94002.34
2022-09-27T04:17:14.162Z,94000.47
2022-09-27T04:20:12.735Z,93984.69
2022-09-27T04:22:45.521Z,93982.22
2022-09-27T04:25:12.559Z,93972.28
2022-09-27T04:27:45.715Z,93982.69
2022-09-27T04:30:13.235Z,93985.16
2022-09-27T04:32:57.957Z,93990.03
2022-09-27T04:36:01.981Z,93994.13
2022-09-27T04:38:29.444Z,94000.88
2022-09-27T04:40:56.656Z,94000.69
2022-09-27T04:43:24.548Z,93995.53
2022-09-27T04:45:51.825Z,94002.22
2022-09-27T04:48:18.872Z,93993.44
2022-09-27T04:50:47.820Z,93995.56
2022-09-27T04:53:15.719Z,94008.25
2022-09-27T04:55:47.426Z,94004.16
2022-09-27T04:58:14.436Z,94012.25
2022-09-27T05:00:43.176Z,94020.78
2022-09-27T05:03:37.595Z,94021.91
2022-09-27T05:06:12.733Z,94009.31
2022-09-27T05:08:39.792Z,94015.38
2022-09-27T05:11:26.876Z,93993.84
2022-09-27T05:14:14.189Z,94000.09
2022-09-27T05:17:04.427Z,93988.13
2022-09-27T05:19:34.921Z,93984.53
2022-09-27T05:22:02.095Z,93983.41
2022-09-27T05:24:29.312Z,93993.53
2022-09-27T05:26:56.119Z,93992.63
2022-09-27T05:29:23.176Z,93996.25
2022-09-27T05:32:04.569Z,93988.69
2022-09-27T05:34:32.684Z,93975.13
2022-09-27T05:37:00.738Z,93977.53
2022-09-27T05:39:30.442Z,93981.31
2022-09-27T05:41:57.649Z,93988.09
2022-09-27T05:44:26.043Z,94001.94
2022-09-27T05:47:03.313Z,93993.81
2022-09-27T05:49:32.039Z,93994.03
2022-09-27T05:51:59.523Z,93987.72
2022-09-27T05:54:29.679Z,93991.84
2022-09-27T05:56:59.239Z,93984.09
2022-09-27T05:59:55.566Z,93985.94
2022-09-27T06:02:22.581Z,93987.38
2022-09-27T06:05:26.715Z,93991.09
2022-09-27T06:08:13.043Z,93981.00
2022-09-27T06:10:48.043Z,93986.50
2022-09-27T06:13:18.925Z,93999.31
2022-09-27T06:15:47.294Z,94001.47
2022-09-27T06:18:18.853Z,93989.34
2022-09-27T06:20:48.699Z,93997.88
2022-09-27T06:23:18.995Z,94003.09
2022-09-27T06:25:48.752Z,93984.91
2022-09-27T06:28:21.531Z,93959.63
2022-09-27T06:30:52.668Z,93978.66
2022-09-27T06:33:26.746Z,93996.16
2022-09-27T06:35:55.119Z,93980.66
2022-09-27T06:38:23.978Z,93980.56
2022-09-27T06:41:20.062Z,93988.50
2022-09-27T06:44:11.333Z,93991.97
2022-09-27T06:46:56.955Z,93994.56
2022-09-27T06:49:30.960Z,93995.09
2022-09-27T06:51:59.785Z,93987.75
2022-09-27T06:54:26.496Z,93996.00
2022-09-27T06:56:53.155Z,93991.41
2022-09-27T06:59:38.542Z,93994.50
2022-09-27T07:02:27.894Z,93991.16
2022-09-27T07:05:00.992Z,93985.59
2022-09-27T07:07:47.899Z,93986.59
2022-09-27T07:10:18.359Z,94001.66
2022-09-27T07:12:48.646Z,94001.06
2022-09-27T07:15:16.514Z,93994.09
2022-09-27T07:17:44.263Z,93997.28
2022-09-27T07:20:11.753Z,94000.09
2022-09-27T07:22:45.864Z,93994.69
2022-09-27T07:25:14.568Z,93991.84
2022-09-27T07:27:44.119Z,93982.47
2022-09-27T07:30:12.270Z,93972.59
2022-09-27T07:32:38.939Z,93995.66
2022-09-27T07:35:09.713Z,93995.66
2022-09-27T07:37:38.144Z,93993.25
2022-09-27T07:40:09.282Z,93995.22
2022-09-27T07:42:41.746Z,93997.72
2022-09-27T07:45:09.776Z,94007.59
2022-09-27T07:47:55.054Z,94015.41
2022-09-27T07:50:44.180Z,94025.44
2022-09-27T07:53:31.274Z,94026.50
2022-09-27T07:56:18.093Z,94029.47
2022-09-27T07:58:47.007Z,94009.03
2022-09-27T08:01:14.223Z,94011.63
2022-09-27T08:03:41.242Z,94007.00
2022-09-27T08:06:08.562Z,94001.31
2022-09-27T08:08:35.584Z,94003.28
2022-09-27T08:11:14.605Z,93992.97
2022-09-27T08:13:42.947Z,93976.38
2022-09-27T08:16:11.285Z,93974.56
2022-09-27T08:18:56.444Z,93979.50
2022-09-27T08:21:43.803Z,93982.22
2022-09-27T08:24:28.562Z,93978.13
2022-09-27T08:27:21.351Z,93984.22
2022-09-27T08:29:53.221Z,93993.75
2022-09-27T08:32:23.235Z,94000.44
2022-09-27T08:34:51.217Z,93986.50
2022-09-27T08:37:20.695Z,93976.72
2022-09-27T08:39:48.672Z,93968.66
2022-09-27T08:42:52.829Z,93956.97
2022-09-27T08:45:29.725Z,93946.25
2022-09-27T08:48:02.998Z,93955.50
2022-09-27T08:50:42.620Z,93938.66
2022-09-27T08:53:15.401Z,93951.03
2022-09-27T08:55:48.116Z,93964.44
2022-09-27T08:58:29.972Z,93954.97
2022-09-27T09:01:00.711Z,93966.09
2022-09-27T09:03:35.407Z,93944.41
2022-09-27T09:06:17.143Z,93937.56
2022-09-27T09:09:05.828Z,93947.56
2022-09-27T09:12:15.208Z,93946.94
2022-09-27T09:15:03.975Z,93941.22
2022-09-27T09:17:33.814Z,93936.63
2022-09-27T09:20:44.769Z,93930.56
2022-09-27T09:23:40.335Z,93943.22
2022-09-27T09:26:13.321Z,93933.38
2022-09-27T09:28:46.995Z,93946.31
2022-09-27T09:31:29.095Z,93948.88
2022-09-27T09:34:14.423Z,93939.34
2022-09-27T09:37:04.636Z,93934.97
2022-09-27T09:39:52.765Z,93927.72
2022-09-27T09:42:40.683Z,93917.69
2022-09-27T09:45:13.355Z,93916.31
2022-09-27T09:48:01.958Z,93933.50
2022-09-27T09:50:35.199Z,93925.63
2022-09-27T09:53:27.672Z,93930.78
2022-09-27T09:56:07.835Z,93935.72
2022-09-27T09:59:02.588Z,93939.72
2022-09-27T10:01:43.807Z,93914.88
2022-09-27T10:04:33.966Z,93915.81
2022-09-27T10:07:02.604Z,93925.81
2022-09-27T10:09:33.904Z,93923.03
2022-09-27T10:12:36.809Z,93922.66
2022-09-27T10:15:06.635Z,93924.16
2022-09-27T10:17:40.077Z,93916.25
2022-09-27T10:20:42.429Z,93924.63
2022-09-27T10:23:22.532Z,93911.81
2022-09-27T10:26:11.201Z,93901.13
2022-09-27T10:28:47.556Z,93879.88
2022-09-27T10:31:21.105Z,93879.03
2022-09-27T10:34:05.745Z,93889.09
2022-09-27T10:36:44.173Z,93894.47
2022-09-27T10:39:35.828Z,93900.38
2022-09-27T10:42:30.628Z,93897.13
2022-09-27T10:44:57.661Z,93905.34
2022-09-27T10:47:32.856Z,93910.50
2022-09-27T10:50:49.048Z,93915.09
2022-09-27T10:53:22.753Z,93888.22
2022-09-27T10:55:59.337Z,93889.28
2022-09-27T10:58:31.142Z,93876.41
2022-09-27T11:01:04.536Z,93867.56
2022-09-27T11:03:52.060Z,93853.09
2022-09-27T11:06:37.698Z,93850.00
2022-09-27T11:09:27.046Z,93844.72
2022-09-27T11:12:14.756Z,93864.44
2022-09-27T11:14:51.700Z,93853.78
2022-09-27T11:17:27.452Z,93850.38
2022-09-27T11:20:28.771Z,93852.41
2022-09-27T11:23:23.334Z,93831.28
2022-09-27T11:26:17.798Z,93830.53
2022-09-27T11:28:50.807Z,93835.97
2022-09-27T11:32:07.708Z,93816.00
2022-09-27T11:34:54.747Z,93840.88
2022-09-27T11:38:07.248Z,93819.84
2022-09-27T11:41:03.253Z,93813.94
2022-09-27T11:43:46.272Z,93822.38
2022-09-27T11:46:41.728Z,93809.56
2022-09-27T11:49:11.164Z,93784.19
2022-09-27T11:51:58.257Z,93785.44
2022-09-27T11:54:48.625Z,93786.81
2022-09-27T11:57:23.138Z,93793.94
2022-09-27T11:59:56.229Z,93778.88
2022-09-27T12:02:22.997Z,93782.19
2022-09-27T12:05:14.225Z,93764.47
2022-09-27T12:08:04.183Z,93777.84
2022-09-27T12:10:31.848Z,93777.59
2022-09-27T12:12:59.326Z,93765.72
2022-09-27T12:15:36.161Z,93761.72
2022-09-27T12:18:13.246Z,93759.78
2022-09-27T12:20:42.267Z,93747.50
2022-09-27T12:23:25.087Z,93751.38
2022-09-27T12:26:35.087Z,93734.81
2022-09-27T12:29:14.577Z,93728.09
2022-09-27T12:31:47.314Z,93716.13
2022-09-27T12:34:19.835Z,93712.09
2022-09-27T12:37:12.487Z,93693.31
2022-09-27T12:39:49.204Z,93697.06
2022-09-27T12:42:33.540Z,93689.50
2022-09-27T12:45:10.670Z,93681.84
2022-09-27T12:47:50.387Z,93684.81
2022-09-27T12:50:44.583Z,93686.22
2022-09-27T12:53:23.062Z,93685.41
2022-09-27T12:56:10.704Z,93669.38
2022-09-27T12:58:55.479Z,93672.78
2022-09-27T13:02:08.571Z,93653.88
2022-09-27T13:05:29.640Z,93678.78
2022-09-27T13:08:54.615Z,93699.31
2022-09-27T13:11:36.947Z,93682.84
2022-09-27T13:14:05.538Z,93685.41
2022-09-27T13:16:46.547Z,93680.41
2022-09-27T13:19:34.293Z,93690.38
2022-09-27T13:22:04.906Z,93682.53
2022-09-27T13:25:55.366Z,93684.81
2022-09-27T13:28:52.343Z,93678.72
2022-09-27T13:31:59.323Z,93671.94
2022-09-27T13:34:53.831Z,93673.44
2022-09-27T13:37:28.826Z,93667.84
2022-09-27T13:40:15.250Z,93664.72
2022-09-27T13:43:11.285Z,93665.97
2022-09-27T13:46:00.181Z,93686.31
2022-09-27T13:48:57.184Z,93691.03
2022-09-27T13:51:42.019Z,93704.19
2022-09-27T13:54:33.823Z,93698.63
2022-09-27T13:57:02.800Z,93692.28
2022-09-27T13:59:44.099Z,93694.56
2022-09-27T14:02:42.269Z,93676.94
2022-09-27T14:05:20.474Z,93675.19
2022-09-27T14:07:50.543Z,93682.31
2022-09-27T14:10:24.271Z,93688.19
2022-09-27T14:12:53.364Z,93673.88
2022-09-27T14:15:27.382Z,93663.56
2022-09-27T14:17:56.004Z,93667.94
2022-09-27T14:20:32.989Z,93667.00
2022-09-27T14:23:03.507Z,93671.06
2022-09-27T14:25:39.866Z,93666.28
2022-09-27T14:28:29.200Z,93674.97
2022-09-27T14:31:14.900Z,93680.78
2022-09-27T14:34:15.452Z,93672.59
2022-09-27T14:37:07.177Z,93655.38
2022-09-27T14:39:45.412Z,93664.59
2022-09-27T14:42:32.480Z,93683.31
2022-09-27T14:45:05.121Z,93686.88
2022-09-27T14:47:32.786Z,93668.09
2022-09-27T14:50:17.769Z,93665.16
2022-09-27T14:52:45.064Z,93662.72
2022-09-27T14:55:20.923Z,93668.63
2022-09-27T14:57:52.636Z,93664.88
2022-09-27T15:00:23.300Z,93683.59
2022-09-27T15:02:55.037Z,93695.88
2022-09-27T15:05:25.523Z,93679.09
2022-09-27T15:07:55.799Z,93666.78
2022-09-27T15:10:27.784Z,93670.66
2022-09-27T15:12:59.884Z,93721.69
2022-09-27T15:15:35.759Z,93755.16
2022-09-27T15:18:23.710Z,93810.09
2022-09-27T15:20:54.695Z,93813.34
2022-09-27T15:23:36.613Z,93816.09
2022-09-27T15:26:03.543Z,93825.84
2022-09-27T15:28:30.467Z,93862.44
2022-09-27T15:30:58.645Z,93848.94
2022-09-27T15:33:34.970Z,93835.22
2022-09-27T15:36:05.982Z,93843.78
2022-09-27T15:38:48.703Z,93843.59
2022-09-27T15:41:17.776Z,93835.56
2022-09-27T15:43:52.751Z,93832.97
2022-09-27T15:46:22.585Z,93854.84
2022-09-27T15:49:22.948Z,93870.13
2022-09-27T15:51:52.444Z,93850.94
2022-09-27T15:54:30.837Z,93819.75
2022-09-27T15:57:04.400Z,93792.09
2022-09-27T15:59:36.321Z,93803.28
2022-09-27T16:02:12.679Z,93858.31
2022-09-27T16:04:39.771Z,93838.97
2022-09-27T16:07:09.056Z,93861.44
2022-09-27T16:09:36.388Z,93864.59
2022-09-27T16:12:03.119Z,93871.78
2022-09-27T16:14:29.806Z,93872.94
2022-09-27T16:17:02.182Z,93897.06
2022-09-27T16:19:28.987Z,93921.78
2022-09-27T16:21:55.873Z,93915.97
2022-09-27T16:24:23.905Z,93898.22
2022-09-27T16:26:50.885Z,93875.13
2022-09-27T16:29:17.818Z,93862.56
2022-09-27T16:31:45.774Z,93846.94
2022-09-27T16:34:13.442Z,93888.41
2022-09-27T16:36:40.715Z,93915.75
2022-09-27T16:39:12.799Z,93926.88
2022-09-27T16:41:41.454Z,93904.31
2022-09-27T16:44:13.010Z,93902.66
2022-09-27T16:46:41.967Z,93889.47
2022-09-27T16:49:28.306Z,93890.56
2022-09-27T16:52:01.477Z,93894.78
2022-09-27T16:54:30.009Z,93894.69
2022-09-27T16:56:58.948Z,93887.03
2022-09-27T16:59:26.080Z,93886.78
2022-09-27T17:01:57.567Z,93902.19
2022-09-27T17:04:26.432Z,93902.75
2022-09-27T17:06:56.988Z,93908.56
2022-09-27T17:09:24.589Z,93912.66
2022-09-27T17:11:51.778Z,93910.16
2022-09-27T17:14:19.000Z,93899.22
2022-09-27T17:16:49.743Z,93904.69
2022-09-27T17:19:18.485Z,93914.47
2022-09-27T17:21:46.353Z,93930.28
2022-09-27T17:24:13.563Z,93944.19
2022-09-27T17:26:40.893Z,93948.81
2022-09-27T17:29:09.817Z,93949.66
2022-09-27T17:31:39.928Z,93954.47
2022-09-27T17:34:12.534Z,93946.69
2022-09-27T17:36:48.105Z,93942.31
2022-09-27T17:39:21.324Z,93945.31
2022-09-27T17:41:49.822Z,93940.25
2022-09-27T17:44:21.635Z,93931.09
2022-09-27T17:47:09.370Z,93929.84
2022-09-27T17:49:55.159Z,93940.41
2022-09-27T17:52:25.689Z,93938.84
2022-09-27T17:54:55.664Z,93942.69
2022-09-27T17:57:22.450Z,93947.97
2022-09-27T17:59:49.471Z,93947.97
2022-09-27T18:02:16.378Z,93948.41
2022-09-27T18:04:43.272Z,93953.56
2022-09-27T18:07:12.291Z,93951.78
2022-09-27T18:09:39.396Z,93964.72
2022-09-27T18:12:06.224Z,93966.34
2022-09-27T18:14:33.797Z,93961.09
2022-09-27T18:17:00.892Z,93965.16
2022-09-27T18:19:27.865Z,93969.91
2022-09-27T18:21:54.794Z,93984.25
2022-09-27T18:24:21.717Z,93984.28
2022-09-27T18:26:49.092Z,93985.97
2022-09-27T18:29:20.856Z,93970.28
2022-09-27T18:31:49.134Z,93970.44
2022-09-27T18:34:18.147Z,93984.34
2022-09-27T18:36:45.617Z,93985.59
2022-09-27T18:39:15.828Z,93989.44
2022-09-27T18:41:43.301Z,94005.09
2022-09-27T18:44:12.540Z,94007.56
2022-09-27T18:46:39.924Z,94002.25
2022-09-27T18:49:10.731Z,94003.53
2022-09-27T18:51:44.845Z,94005.09
2022-09-27T18:54:19.193Z,94008.88
2022-09-27T18:56:48.348Z,94012.75
2022-09-27T18:59:16.517Z,94003.09
2022-09-27T19:01:47.754Z,94011.34
2022-09-27T19:04:21.562Z,94016.78
2022-09-27T19:06:53.409Z,94019.72
2022-09-27T19:09:20.247Z,94022.44
2022-09-27T19:11:49.552Z,94024.84
2022-09-27T19:14:19.724Z,94026.72
2022-09-27T19:16:47.989Z,94018.91
2022-09-27T19:19:18.921Z,94028.38
2022-09-27T19:21:46.839Z,94021.75
2022-09-27T19:24:15.563Z,94029.25
2022-09-27T19:26:44.072Z,94020.84
2022-09-27T19:29:13.043Z,94052.38
2022-09-27T19:31:41.337Z,94035.50
2022-09-27T19:34:08.235Z,94036.28
2022-09-27T19:36:35.159Z,94034.50
2022-09-27T19:39:03.730Z,94033.44
2022-09-27T19:41:30.485Z,94042.63
2022-09-27T19:43:57.801Z,94048.44
2022-09-27T19:46:26.079Z,94054.75
2022-09-27T19:48:55.169Z,94055.03
2022-09-27T19:51:26.061Z,94062.69
2022-09-27T19:53:55.031Z,94057.34
2022-09-27T19:56:24.742Z,94062.16
2022-09-27T19:58:51.920Z,94065.56
2022-09-27T20:01:20.564Z,94065.44
2022-09-27T20:03:51.134Z,94064.03
2022-09-27T20:06:20.772Z,94052.81
2022-09-27T20:08:48.436Z,94056.63
2022-09-27T20:11:20.199Z,94061.78
2022-09-27T20:13:50.589Z,94056.72
2022-09-27T20:16:19.684Z,94069.34
2022-09-27T20:18:51.068Z,94067.25
2022-09-27T20:21:19.114Z,94079.50
2022-09-27T20:23:49.357Z,94081.63
2022-09-27T20:26:17.498Z,94089.78
2022-09-27T20:28:50.298Z,94084.28
2022-09-27T20:31:19.928Z,94078.50
2022-09-27T20:33:49.747Z,94083.88
2022-09-27T20:36:38.049Z,94082.97
2022-09-27T20:39:06.992Z,94084.06
2022-09-27T20:41:36.940Z,94085.16
2022-09-27T20:44:07.097Z,94090.72
2022-09-27T20:46:35.473Z,94087.13
2022-09-27T20:49:05.296Z,94091.31
2022-09-27T20:51:33.424Z,94098.13
2022-09-27T20:54:01.291Z,94099.56
2022-09-27T20:56:31.471Z,94109.44
2022-09-27T20:59:01.000Z,94101.00
2022-09-27T21:01:29.400Z,94108.25
2022-09-27T21:03:58.539Z,94119.88
2022-09-27T21:06:27.153Z,94121.16
2022-09-27T21:08:54.718Z,94116.09
2022-09-27T21:11:22.808Z,94117.66
2022-09-27T21:13:51.483Z,94119.19
2022-09-27T21:16:23.960Z,94113.84
2022-09-27T21:18:55.539Z,94107.41
2022-09-27T21:21:24.122Z,94116.75
2022-09-27T21:23:56.209Z,94105.13
2022-09-27T21:26:24.381Z,94101.28
2022-09-27T21:28:54.153Z,94101.28
2022-09-27T21:31:23.863Z,94101.25
2022-09-27T21:33:55.732Z,94105.91
2022-09-27T21:36:23.676Z,94105.72
2022-09-27T21:38:51.000Z,94114.34
2022-09-27T21:41:18.199Z,94121.91
2022-09-27T21:43:46.947Z,94130.31
2022-09-27T21:46:16.532Z,94122.13
2022-09-27T21:48:46.557Z,94127.56
2022-09-27T21:51:17.494Z,94120.91
2022-09-27T21:53:50.538Z,94127.56
2022-09-27T21:56:20.608Z,94115.72
2022-09-27T21:58:47.857Z,94106.44
2022-09-27T22:01:18.406Z,94116.59
2022-09-27T22:03:46.567Z,94121.91
2022-09-27T22:06:19.544Z,94109.50
2022-09-27T22:08:48.020Z,94109.75
2022-09-27T22:11:24.536Z,94117.03
2022-09-27T22:13:51.695Z,94120.16
2022-09-27T22:16:20.362Z,94119.47
2022-09-27T22:18:51.909Z,94115.28
2022-09-27T22:21:26.427Z,94120.63
2022-09-27T22:24:07.173Z,94129.03
2022-09-27T22:26:37.348Z,94124.38
2022-09-27T22:29:05.329Z,94124.06
2022-09-27T22:31:33.134Z,94124.81
2022-09-27T22:34:03.457Z,94123.22
2022-09-27T22:36:32.409Z,94129.00
2022-09-27T22:38:59.729Z,94132.56
2022-09-27T22:41:26.592Z,94130.13
2022-09-27T22:43:56.315Z,94124.38
2022-09-27T22:46:23.071Z,94125.25
2022-09-27T22:48:50.241Z,94126.91
2022-09-27T22:51:17.489Z,94134.53
2022-09-27T22:53:44.447Z,94124.03
2022-09-27T22:56:16.360Z,94125.47
2022-09-27T22:58:44.216Z,94135.81
2022-09-27T23:01:23.090Z,94125.19
2022-09-27T23:03:52.584Z,94128.13
2022-09-27T23:06:21.186Z,94134.16
2022-09-27T23:08:48.662Z,94117.72
2022-09-27T23:11:17.888Z,94125.97
2022-09-27T23:13:45.706Z,94130.66
2022-09-27T23:16:14.966Z,94106.16
2022-09-27T23:18:42.453Z,94115.78
2022-09-27T23:21:11.151Z,94118.19
2022-09-27T23:23:42.764Z,94118.28
2022-09-27T23:26:13.426Z,94100.25
2022-09-27T23:28:40.744Z,94109.09
2022-09-27T23:31:13.804Z,94110.06
2022-09-27T23:33:43.588Z,94120.19
2022-09-27T23:36:15.212Z,94109.59
2022-09-27T23:38:43.497Z,94121.41
2022-09-27T23:41:13.711Z,94122.44
2022-09-27T23:43:40.569Z,94117.81
2022-09-27T23:46:08.785Z,94102.25
2022-09-27T23:48:36.701Z,94125.25
2022-09-27T23:51:05.911Z,94119.31
2022-09-27T23:53:33.172Z,94104.16
2022-09-27T23:56:02.761Z,94089.41
2022-09-27T23:58:37.478Z,94123.19
